createdAt,value
2022-11-09T00:01:07.302Z,8.09
2022-11-09T00:03:33.741Z,7.79
2022-11-09T00:06:00.174Z,8.07
2022-11-09T00:08:26.643Z,7.65
2022-11-09T00:10:53.057Z,7.96
2022-11-09T00:13:19.697Z,9.29
2022-11-09T00:15:46.270Z,9.91
2022-11-09T00:18:12.697Z,10.06
2022-11-09T00:20:42.099Z,9.33
2022-11-09T00:23:12.428Z,9.20
2022-11-09T00:25:38.813Z,8.96
2022-11-09T00:28:05.192Z,9.38
2022-11-09T00:30:31.568Z,10.18
2022-11-09T00:32:57.971Z,9.82
2022-11-09T00:35:24.382Z,9.59
2022-11-09T00:37:50.885Z,9.69
2022-11-09T00:40:17.352Z,9.80
2022-11-09T00:42:43.766Z,9.40
2022-11-09T00:45:10.167Z,9.54
2022-11-09T00:47:36.585Z,9.16
2022-11-09T00:50:03.012Z,9.84
2022-11-09T00:52:29.444Z,9.14
2022-11-09T00:54:55.885Z,9.65
2022-11-09T00:57:22.331Z,10.05
2022-11-09T00:59:48.741Z,9.93
2022-11-09T01:02:15.152Z,10.19
2022-11-09T01:04:41.573Z,10.52
2022-11-09T01:07:08.049Z,10.22
2022-11-09T01:09:34.508Z,9.62
2022-11-09T01:12:00.899Z,8.95
2022-11-09T01:14:27.302Z,9.13
2022-11-09T01:16:53.691Z,8.96
2022-11-09T01:19:20.056Z,9.18
2022-11-09T01:21:46.464Z,9.14
2022-11-09T01:24:12.847Z,9.78
2022-11-09T01:26:39.302Z,9.75
2022-11-09T01:29:05.714Z,9.05
2022-11-09T01:31:32.104Z,9.73
2022-11-09T01:33:58.549Z,10.13
2022-11-09T01:36:24.971Z,9.96
2022-11-09T01:38:51.390Z,9.90
2022-11-09T01:41:17.817Z,10.50
2022-11-09T01:43:44.240Z,11.08
2022-11-09T01:46:10.647Z,10.74
2022-11-09T01:48:37.067Z,10.73
2022-11-09T01:51:03.498Z,10.80
2022-11-09T01:53:29.893Z,10.63
2022-11-09T01:55:56.308Z,10.22
2022-11-09T01:58:22.709Z,10.27
2022-11-09T02:00:49.258Z,8.73
2022-11-09T02:03:15.706Z,7.15
2022-11-09T02:05:42.131Z,4.63
2022-11-09T02:08:08.510Z,3.85
2022-11-09T02:10:34.890Z,3.51
2022-11-09T02:13:01.284Z,3.74
2022-11-09T02:15:27.706Z,3.74
2022-11-09T02:17:54.105Z,4.11
2022-11-09T02:20:20.496Z,4.02
2022-11-09T02:22:46.908Z,3.31
2022-11-09T02:25:13.306Z,3.50
2022-11-09T02:27:39.727Z,3.34
2022-11-09T02:30:06.117Z,3.53
2022-11-09T02:32:32.540Z,4.12
2022-11-09T02:34:58.935Z,4.70
2022-11-09T02:37:25.352Z,7.13
2022-11-09T02:39:51.731Z,8.37
2022-11-09T02:42:21.459Z,9.22
2022-11-09T02:44:48.344Z,10.29
2022-11-09T02:47:14.752Z,10.64
2022-11-09T02:49:41.179Z,11.00
2022-11-09T02:52:07.704Z,10.68
2022-11-09T02:54:34.145Z,11.57
2022-11-09T02:57:00.557Z,11.30
2022-11-09T02:59:26.990Z,11.90
2022-11-09T03:01:53.377Z,10.31
2022-11-09T03:04:19.788Z,10.49
2022-11-09T03:06:46.267Z,10.60
2022-11-09T03:09:12.737Z,10.63
2022-11-09T03:11:39.178Z,10.89
2022-11-09T03:14:05.600Z,11.83
2022-11-09T03:16:32.052Z,12.65
2022-11-09T03:18:58.470Z,12.42
2022-11-09T03:21:24.890Z,12.37
2022-11-09T03:23:51.314Z,12.27
2022-11-09T03:26:17.769Z,12.73
2022-11-09T03:28:44.183Z,12.29
2022-11-09T03:31:10.596Z,12.57
2022-11-09T03:33:36.979Z,12.58
2022-11-09T03:36:03.491Z,12.28
2022-11-09T03:38:29.910Z,12.75
2022-11-09T03:40:56.345Z,11.68
2022-11-09T03:43:23.013Z,11.34
2022-11-09T03:45:49.650Z,13.35
2022-11-09T03:48:16.058Z,12.16
2022-11-09T03:50:42.507Z,12.69
2022-11-09T03:53:08.910Z,11.64
2022-11-09T03:55:35.381Z,11.72
2022-11-09T03:58:01.841Z,10.98
2022-11-09T04:00:28.270Z,10.89
2022-11-09T04:02:54.702Z,10.97
2022-11-09T04:05:21.129Z,11.22
2022-11-09T04:07:47.569Z,11.30
2022-11-09T04:10:13.985Z,12.49
2022-11-09T04:12:40.406Z,14.09
2022-11-09T04:15:06.827Z,17.92
2022-11-09T04:17:33.236Z,10.52
2022-11-09T04:19:59.638Z,11.24
2022-11-09T04:22:26.068Z,13.11
2022-11-09T04:24:52.491Z,31.69
2022-11-09T04:27:18.902Z,39.39
2022-11-09T04:29:45.312Z,14.81
2022-11-09T04:32:11.756Z,10.76
2022-11-09T04:34:38.195Z,10.21
2022-11-09T04:37:04.578Z,9.22
2022-11-09T04:39:30.991Z,9.21
2022-11-09T04:41:57.411Z,8.93
2022-11-09T04:44:23.870Z,8.91
2022-11-09T04:46:50.270Z,8.47
2022-11-09T04:49:16.649Z,8.43
2022-11-09T04:51:43.086Z,8.36
2022-11-09T04:54:09.477Z,8.53
2022-11-09T04:56:35.858Z,8.40
2022-11-09T04:59:02.275Z,8.37
2022-11-09T05:01:28.663Z,8.88
2022-11-09T05:03:55.121Z,8.87
2022-11-09T05:06:21.536Z,8.67
2022-11-09T05:08:47.940Z,8.30
2022-11-09T05:11:14.365Z,8.16
2022-11-09T05:13:40.745Z,8.00
2022-11-09T05:16:07.157Z,8.17
2022-11-09T05:18:33.563Z,8.36
2022-11-09T05:20:59.977Z,8.21
2022-11-09T05:23:26.402Z,8.87
2022-11-09T05:25:52.809Z,15.33
2022-11-09T05:28:19.212Z,9.81
2022-11-09T05:30:45.653Z,8.47
2022-11-09T05:33:12.050Z,8.42
2022-11-09T05:35:38.468Z,8.75
2022-11-09T05:38:04.879Z,8.66
2022-11-09T05:40:31.283Z,8.76
2022-11-09T05:42:57.688Z,8.88
2022-11-09T05:48:10.470Z,9.56
2022-11-09T05:50:36.882Z,9.58
2022-11-09T05:53:03.274Z,8.98
2022-11-09T05:55:29.702Z,9.54
2022-11-09T05:57:56.111Z,8.95
2022-11-09T06:00:22.530Z,8.77
2022-11-09T06:02:49.617Z,8.87
2022-11-09T06:05:16.064Z,9.20
2022-11-09T06:07:42.445Z,9.19
2022-11-09T06:10:08.871Z,9.80
2022-11-09T06:12:35.306Z,9.45
2022-11-09T06:15:01.726Z,10.08
2022-11-09T06:17:28.130Z,10.21
2022-11-09T06:19:54.589Z,10.01
2022-11-09T06:22:21.022Z,9.72
2022-11-09T06:24:47.474Z,10.05
2022-11-09T06:27:13.885Z,10.28
2022-11-09T06:29:40.306Z,10.68
2022-11-09T06:32:06.725Z,9.84
2022-11-09T06:34:33.183Z,10.14
2022-11-09T06:36:59.597Z,8.85
2022-11-09T06:39:26.015Z,8.70
2022-11-09T06:41:52.447Z,9.39
2022-11-09T06:44:19.312Z,11.44
2022-11-09T06:46:45.753Z,9.15
2022-11-09T06:49:12.184Z,10.00
2022-11-09T06:51:38.582Z,10.10
2022-11-09T06:54:04.986Z,10.87
2022-11-09T06:56:31.438Z,10.08
2022-11-09T06:58:57.885Z,11.46
2022-11-09T07:01:24.328Z,9.47
2022-11-09T07:03:50.759Z,10.77
2022-11-09T07:06:17.187Z,9.84
2022-11-09T07:08:43.615Z,10.06
2022-11-09T07:11:10.072Z,10.30
2022-11-09T07:13:36.508Z,10.02
2022-11-09T07:16:02.921Z,9.13
2022-11-09T07:18:29.368Z,9.63
2022-11-09T07:20:55.796Z,10.30
2022-11-09T07:23:22.638Z,9.79
2022-11-09T07:25:49.354Z,10.65
2022-11-09T07:28:15.801Z,11.00
2022-11-09T07:30:42.256Z,9.98
2022-11-09T07:33:10.318Z,10.14
2022-11-09T07:35:36.975Z,9.38
2022-11-09T07:38:03.420Z,9.26
2022-11-09T07:40:30.026Z,9.52
2022-11-09T07:42:56.567Z,9.60
2022-11-09T07:45:23.000Z,9.29
2022-11-09T07:47:49.425Z,9.09
2022-11-09T07:50:15.879Z,8.88
2022-11-09T07:52:42.303Z,8.88
2022-11-09T07:55:08.711Z,9.33
2022-11-09T07:57:35.255Z,9.56
2022-11-09T08:00:01.699Z,9.77
2022-11-09T08:02:28.145Z,9.78
2022-11-09T08:04:54.593Z,9.22
2022-11-09T08:07:21.018Z,9.10
2022-11-09T08:09:47.470Z,9.05
2022-11-09T08:12:13.877Z,9.46
2022-11-09T08:14:40.303Z,9.78
2022-11-09T08:17:06.713Z,9.47
2022-11-09T08:19:33.155Z,9.18
2022-11-09T08:21:59.595Z,9.56
2022-11-09T08:24:26.038Z,8.29
2022-11-09T08:26:52.499Z,8.34
2022-11-09T08:29:18.906Z,8.30
2022-11-09T08:31:45.336Z,8.23
2022-11-09T08:34:11.743Z,8.20
2022-11-09T08:36:38.195Z,8.39
2022-11-09T08:39:04.633Z,8.73
2022-11-09T08:41:31.105Z,8.74
2022-11-09T08:43:57.586Z,8.57
2022-11-09T08:46:23.999Z,7.89
2022-11-09T08:48:50.512Z,8.22
2022-11-09T08:51:16.944Z,14.58
2022-11-09T08:53:43.404Z,16.17
2022-11-09T08:56:09.839Z,10.28
2022-11-09T08:58:36.290Z,8.04
2022-11-09T09:01:02.743Z,10.80
2022-11-09T09:03:29.160Z,9.15
2022-11-09T09:05:55.579Z,11.00
2022-11-09T09:08:22.338Z,6.88
2022-11-09T09:10:49.005Z,8.86
2022-11-09T09:13:15.439Z,9.76
2022-11-09T09:15:41.958Z,7.42
2022-11-09T09:18:08.378Z,7.14
2022-11-09T09:20:34.775Z,7.40
2022-11-09T09:23:01.220Z,7.72
2022-11-09T09:25:27.667Z,6.50
2022-11-09T09:27:54.095Z,7.12
2022-11-09T09:30:20.500Z,6.50
2022-11-09T09:32:46.918Z,7.18
2022-11-09T09:35:13.346Z,6.40
2022-11-09T09:37:39.757Z,5.91
2022-11-09T09:40:06.184Z,5.96
2022-11-09T09:42:32.592Z,5.45
2022-11-09T09:44:59.023Z,5.53
2022-11-09T09:47:25.416Z,5.71
2022-11-09T09:49:51.920Z,5.42
2022-11-09T09:52:18.497Z,4.92
2022-11-09T09:54:44.897Z,5.10
2022-11-09T09:57:11.325Z,5.21
2022-11-09T09:59:37.749Z,5.55
2022-11-09T10:02:04.147Z,5.23
2022-11-09T10:04:30.641Z,5.02
2022-11-09T10:06:57.122Z,5.10
2022-11-09T10:09:23.551Z,5.13
2022-11-09T10:11:49.981Z,5.17
2022-11-09T10:14:16.412Z,5.42
2022-11-09T10:16:42.852Z,5.34
2022-11-09T10:19:09.278Z,5.53
2022-11-09T10:21:35.727Z,5.48
2022-11-09T10:24:02.139Z,5.73
2022-11-09T10:26:28.535Z,5.85
2022-11-09T10:29:14.990Z,6.57
2022-11-09T10:31:41.355Z,6.55
2022-11-09T10:34:07.829Z,6.87
2022-11-09T10:36:34.276Z,6.44
2022-11-09T10:39:00.697Z,7.33
2022-11-09T10:41:27.125Z,7.17
2022-11-09T10:43:53.532Z,7.44
2022-11-09T10:46:19.944Z,7.18
2022-11-09T10:48:46.372Z,7.28
2022-11-09T10:51:12.797Z,7.93
2022-11-09T10:53:39.216Z,7.59
2022-11-09T10:56:05.673Z,7.83
2022-11-09T10:58:32.077Z,7.70
2022-11-09T11:00:58.480Z,7.52
2022-11-09T11:03:25.124Z,7.73
2022-11-09T11:05:51.635Z,7.32
2022-11-09T11:08:18.099Z,7.88
2022-11-09T11:10:44.504Z,8.07
2022-11-09T11:13:10.902Z,7.91
2022-11-09T11:15:37.331Z,8.69
2022-11-09T11:18:03.725Z,7.87
2022-11-09T11:20:30.147Z,8.04
2022-11-09T11:22:56.566Z,11.45
2022-11-09T11:25:22.976Z,7.19
2022-11-09T11:27:49.380Z,7.39
2022-11-09T11:30:15.825Z,7.27
2022-11-09T11:32:45.722Z,7.40
2022-11-09T11:35:16.504Z,7.48
2022-11-09T11:37:42.915Z,6.92
2022-11-09T11:40:09.536Z,6.94
2022-11-09T11:42:36.008Z,7.65
2022-11-09T11:45:33.605Z,7.34
2022-11-09T11:47:48.858Z,6.48
2022-11-09T11:50:15.245Z,7.60
2022-11-09T11:52:41.687Z,5.85
2022-11-09T11:55:08.129Z,5.41
2022-11-09T11:57:34.558Z,5.76
2022-11-09T12:00:00.959Z,5.69
2022-11-09T12:02:27.436Z,5.84
2022-11-09T12:04:53.893Z,5.56
2022-11-09T12:07:20.357Z,5.28
2022-11-09T12:09:46.832Z,4.94
2022-11-09T12:12:13.252Z,4.35
2022-11-09T12:14:39.681Z,4.15
2022-11-09T12:17:06.107Z,3.99
2022-11-09T12:19:35.555Z,4.03
2022-11-09T12:22:02.447Z,3.66
2022-11-09T12:24:28.854Z,3.72
2022-11-09T12:27:17.755Z,3.88
2022-11-09T12:29:41.640Z,3.74
2022-11-09T12:32:08.047Z,3.85
2022-11-09T12:34:34.487Z,3.63
2022-11-09T12:37:00.905Z,3.55
2022-11-09T12:39:27.344Z,4.02
2022-11-09T12:41:53.772Z,3.54
2022-11-09T12:44:20.178Z,3.73
2022-11-09T12:46:46.615Z,3.79
2022-11-09T12:49:13.067Z,3.56
2022-11-09T12:51:39.691Z,3.68
2022-11-09T12:54:06.341Z,3.79
2022-11-09T12:56:32.800Z,3.66
2022-11-09T12:58:59.207Z,3.44
2022-11-09T13:01:25.700Z,3.63
2022-11-09T13:03:52.175Z,4.06
2022-11-09T13:06:18.616Z,4.64
2022-11-09T13:08:45.048Z,5.11
2022-11-09T13:11:11.512Z,4.46
2022-11-09T13:13:37.926Z,6.10
2022-11-09T13:16:04.348Z,4.04
2022-11-09T13:18:35.167Z,3.77
2022-11-09T13:21:02.302Z,3.76
2022-11-09T13:23:47.599Z,3.98
2022-11-09T13:26:15.103Z,4.07
2022-11-09T13:28:41.574Z,4.03
2022-11-09T13:31:07.970Z,4.14
2022-11-09T13:33:34.395Z,3.65
2022-11-09T13:36:00.799Z,3.81
2022-11-09T13:38:27.334Z,3.91
2022-11-09T13:40:53.748Z,4.08
2022-11-09T13:43:20.389Z,6.26
2022-11-09T13:45:47.205Z,4.37
2022-11-09T13:48:13.635Z,3.22
2022-11-09T13:50:40.175Z,3.17
2022-11-09T13:53:06.591Z,3.18
2022-11-09T13:55:33.023Z,3.23
2022-11-09T13:57:59.429Z,3.32
2022-11-09T14:00:25.837Z,3.41
2022-11-09T14:02:52.231Z,3.24
2022-11-09T14:05:18.650Z,3.65
2022-11-09T14:07:45.058Z,3.68
2022-11-09T14:10:11.459Z,3.30
2022-11-09T14:12:37.846Z,2.94
2022-11-09T14:15:04.248Z,2.74
2022-11-09T14:17:30.643Z,2.50
2022-11-09T14:19:57.062Z,2.67
2022-11-09T14:22:23.476Z,2.77
2022-11-09T14:24:49.888Z,3.06
2022-11-09T14:27:16.281Z,3.02
2022-11-09T14:29:42.687Z,3.22
2022-11-09T14:32:09.098Z,2.97
2022-11-09T14:34:35.491Z,2.81
2022-11-09T14:37:04.935Z,2.71
2022-11-09T14:39:32.400Z,2.42
2022-11-09T14:41:58.805Z,2.07
2022-11-09T14:44:25.271Z,2.04
2022-11-09T14:46:51.701Z,1.54
2022-11-09T14:49:18.122Z,1.31
2022-11-09T14:51:44.580Z,1.19
2022-11-09T14:54:11.005Z,0.85
2022-11-09T14:56:37.416Z,0.78
2022-11-09T14:59:03.835Z,0.82
2022-11-09T15:01:30.336Z,0.66
2022-11-09T15:03:56.832Z,0.54
2022-11-09T15:06:23.266Z,0.56
2022-11-09T15:08:49.665Z,1.29
2022-11-09T15:11:17.284Z,2.40
2022-11-09T15:13:43.698Z,2.45
2022-11-09T15:16:10.096Z,2.91
2022-11-09T15:18:36.524Z,2.55
2022-11-09T15:21:02.954Z,1.65
2022-11-09T15:23:29.375Z,0.95
2022-11-09T15:25:55.794Z,0.60
2022-11-09T15:28:22.598Z,0.58
2022-11-09T15:30:49.269Z,0.54
2022-11-09T15:33:15.716Z,0.54
2022-11-09T15:35:42.124Z,0.60
2022-11-09T15:38:08.536Z,0.61
2022-11-09T15:40:35.071Z,0.62
2022-11-09T15:43:01.483Z,0.66
2022-11-09T15:45:27.894Z,0.49
2022-11-09T15:47:54.333Z,0.60
2022-11-09T15:50:20.761Z,0.71
2022-11-09T15:52:47.220Z,0.72
2022-11-09T15:55:13.637Z,0.78
2022-11-09T15:57:40.113Z,1.04
2022-11-09T16:00:12.594Z,0.91
2022-11-09T16:02:41.038Z,0.95
2022-11-09T16:05:07.466Z,0.76
2022-11-09T16:07:33.910Z,0.69
2022-11-09T16:10:00.339Z,0.72
2022-11-09T16:12:26.773Z,0.76
2022-11-09T16:14:53.192Z,0.67
2022-11-09T16:17:19.631Z,0.63
2022-11-09T16:19:46.051Z,0.71
2022-11-09T16:22:12.442Z,0.76
2022-11-09T16:24:38.883Z,0.73
2022-11-09T16:27:12.537Z,0.66
2022-11-09T16:29:48.754Z,0.59
2022-11-09T16:32:15.181Z,0.64
2022-11-09T16:34:41.570Z,0.72
2022-11-09T16:37:07.967Z,0.61
2022-11-09T16:39:34.378Z,0.59
2022-11-09T16:42:00.776Z,0.59
2022-11-09T16:44:27.175Z,0.78
2022-11-09T16:46:53.689Z,0.73
2022-11-09T16:49:20.110Z,0.66
2022-11-09T16:51:46.550Z,0.75
2022-11-09T16:54:12.956Z,0.67
2022-11-09T16:56:39.362Z,0.89
2022-11-09T16:59:05.762Z,1.48
2022-11-09T17:01:32.217Z,2.38
2022-11-09T17:03:58.701Z,1.12
2022-11-09T17:06:25.143Z,1.07
2022-11-09T17:08:51.581Z,1.35
2022-11-09T17:11:18.034Z,0.95
2022-11-09T17:13:44.474Z,1.01
2022-11-09T17:16:10.892Z,1.04
2022-11-09T17:18:37.324Z,1.02
2022-11-09T17:21:03.788Z,1.07
2022-11-09T17:23:30.214Z,1.32
2022-11-09T17:25:56.675Z,1.68
2022-11-09T17:28:23.271Z,1.63
2022-11-09T17:30:49.782Z,1.64
2022-11-09T17:33:16.217Z,1.53
2022-11-09T17:35:42.640Z,1.70
2022-11-09T17:38:09.077Z,1.55
2022-11-09T17:40:35.504Z,1.40
2022-11-09T17:43:02.100Z,1.42
2022-11-09T17:45:28.572Z,2.01
2022-11-09T17:47:54.995Z,2.03
2022-11-09T17:50:21.419Z,1.77
2022-11-09T17:52:47.830Z,1.83
2022-11-09T17:55:14.290Z,1.54
2022-11-09T17:57:40.739Z,1.56
2022-11-09T18:00:07.151Z,3.25
2022-11-09T18:02:33.575Z,1.78
2022-11-09T18:04:59.997Z,4.47
2022-11-09T18:07:26.451Z,2.94
2022-11-09T18:09:52.866Z,1.50
2022-11-09T18:12:19.289Z,1.27
2022-11-09T18:14:45.730Z,1.72
2022-11-09T18:17:12.146Z,1.40
2022-11-09T18:19:38.568Z,1.36
2022-11-09T18:22:08.728Z,1.23
2022-11-09T18:24:38.837Z,1.35
2022-11-09T18:27:05.299Z,1.29
2022-11-09T18:29:31.721Z,1.95
2022-11-09T18:31:58.199Z,2.14
2022-11-09T18:34:24.595Z,2.47
2022-11-09T18:36:51.021Z,2.88
2022-11-09T18:39:17.434Z,3.03
2022-11-09T18:41:43.870Z,3.41
2022-11-09T18:44:10.285Z,2.86
2022-11-09T18:46:36.713Z,3.44
2022-11-09T18:49:03.136Z,2.76
2022-11-09T18:51:29.565Z,2.30
2022-11-09T18:53:55.990Z,2.71
2022-11-09T18:56:22.406Z,2.58
2022-11-09T18:58:48.811Z,2.13
2022-11-09T19:01:15.231Z,1.89
2022-11-09T19:03:41.625Z,1.91
2022-11-09T19:06:08.049Z,1.47
2022-11-09T19:08:34.436Z,1.36
2022-11-09T19:11:00.825Z,1.37
2022-11-09T19:13:27.251Z,1.13
2022-11-09T19:15:58.175Z,1.28
2022-11-09T19:18:25.009Z,1.59
2022-11-09T19:20:51.442Z,2.01
2022-11-09T19:23:17.856Z,1.92
2022-11-09T19:25:44.385Z,1.91
2022-11-09T19:28:10.799Z,2.09
2022-11-09T19:30:37.223Z,2.28
2022-11-09T19:33:03.724Z,2.14
2022-11-09T19:35:33.827Z,2.21
2022-11-09T19:38:06.029Z,2.20
2022-11-09T19:40:38.398Z,2.09
2022-11-09T19:43:06.197Z,2.07
2022-11-09T19:45:32.644Z,2.32
2022-11-09T19:47:59.066Z,2.75
2022-11-09T19:50:25.496Z,2.48
2022-11-09T19:52:52.024Z,2.76
2022-11-09T19:55:18.470Z,3.00
2022-11-09T19:57:44.872Z,3.04
2022-11-09T20:00:11.300Z,3.02
2022-11-09T20:02:37.717Z,2.94
2022-11-09T20:05:04.140Z,3.24
2022-11-09T20:07:30.610Z,3.51
2022-11-09T20:09:57.024Z,3.64
2022-11-09T20:12:23.440Z,3.24
2022-11-09T20:14:49.846Z,2.84
2022-11-09T20:17:16.238Z,2.63
2022-11-09T20:19:42.672Z,2.48
2022-11-09T20:22:09.093Z,2.34
2022-11-09T20:24:35.520Z,2.36
2022-11-09T20:27:01.932Z,2.22
2022-11-09T20:29:28.321Z,1.82
2022-11-09T20:31:54.740Z,1.88
2022-11-09T20:34:21.149Z,2.20
2022-11-09T20:36:47.596Z,2.26
2022-11-09T20:39:14.028Z,2.27
2022-11-09T20:41:40.637Z,2.00
2022-11-09T20:44:07.038Z,2.24
2022-11-09T20:46:36.502Z,2.27
2022-11-09T20:49:03.755Z,2.51
2022-11-09T20:51:30.326Z,2.56
2022-11-09T20:53:56.757Z,2.53
2022-11-09T20:56:23.201Z,2.47
2022-11-09T20:58:49.578Z,2.40
2022-11-09T21:01:16.170Z,2.61
2022-11-09T21:03:42.627Z,2.05
2022-11-09T21:06:09.025Z,2.17
2022-11-09T21:08:35.409Z,1.98
2022-11-09T21:11:01.811Z,2.44
2022-11-09T21:13:28.214Z,2.39
2022-11-09T21:15:54.656Z,2.26
2022-11-09T21:18:21.164Z,2.25
2022-11-09T21:20:47.769Z,2.34
2022-11-09T21:23:14.553Z,2.50
2022-11-09T21:25:41.218Z,2.63
2022-11-09T21:28:07.667Z,2.56
2022-11-09T21:30:34.084Z,2.78
2022-11-09T21:33:00.490Z,2.83
2022-11-09T21:35:26.923Z,2.32
2022-11-09T21:37:53.362Z,2.29
2022-11-09T21:40:19.777Z,2.26
2022-11-09T21:42:46.289Z,2.71
2022-11-09T21:45:12.696Z,2.86
2022-11-09T21:47:39.095Z,2.43
2022-11-09T21:50:09.712Z,2.67
2022-11-09T21:52:38.848Z,2.13
2022-11-09T21:55:05.279Z,1.96
2022-11-09T21:57:34.016Z,1.90
2022-11-09T22:00:00.422Z,1.63
2022-11-09T22:02:26.841Z,1.40
2022-11-09T22:04:53.234Z,1.49
2022-11-09T22:07:19.664Z,1.98
2022-11-09T22:10:08.695Z,2.44
2022-11-09T22:12:32.460Z,2.65
2022-11-09T22:14:58.877Z,3.05
2022-11-09T22:17:25.322Z,2.86
2022-11-09T22:19:51.748Z,3.19
2022-11-09T22:22:18.141Z,2.76
2022-11-09T22:24:44.573Z,2.99
2022-11-09T22:27:10.995Z,3.14
2022-11-09T22:29:37.376Z,2.67
2022-11-09T22:32:03.786Z,2.92
2022-11-09T22:34:30.215Z,2.80
2022-11-09T22:36:56.615Z,3.00
2022-11-09T22:39:23.024Z,3.08
2022-11-09T22:41:49.450Z,3.13
2022-11-09T22:44:15.834Z,3.30
2022-11-09T22:46:42.231Z,2.90
2022-11-09T22:49:08.639Z,2.73
2022-11-09T22:51:35.802Z,2.66
2022-11-09T22:54:02.208Z,2.69
2022-11-09T22:56:28.692Z,2.53
2022-11-09T22:58:55.109Z,2.50
2022-11-09T23:01:21.605Z,2.47
2022-11-09T23:03:48.063Z,2.27
2022-11-09T23:06:14.470Z,2.11
2022-11-09T23:08:40.973Z,2.24
2022-11-09T23:11:07.367Z,1.95
2022-11-09T23:13:33.763Z,1.98
2022-11-09T23:16:00.143Z,2.11
2022-11-09T23:18:26.541Z,2.26
2022-11-09T23:20:52.920Z,2.39
2022-11-09T23:23:19.683Z,2.25
2022-11-09T23:25:46.307Z,2.14
2022-11-09T23:28:12.693Z,2.06
2022-11-09T23:30:39.085Z,1.75
2022-11-09T23:33:05.489Z,1.54
2022-11-09T23:35:31.887Z,1.40
2022-11-09T23:37:58.265Z,1.18
2022-11-09T23:40:24.656Z,0.96
2022-11-09T23:42:51.025Z,0.98
2022-11-09T23:45:17.434Z,0.89
2022-11-09T23:47:43.845Z,0.75
2022-11-09T23:50:10.240Z,0.73
2022-11-09T23:52:36.634Z,0.69
2022-11-09T23:55:03.020Z,0.62
2022-11-09T23:57:29.445Z,0.75
2022-11-09T23:59:55.854Z,0.77
